Meteo Giornale » Osservazioni meteo Svizzera » Lugano

ore: 03:50 - Osservazioni Meteo Lugano
Lat. 46° 0' N Lon. 8° 58' E Alt. 273 metri s.l.m.

molto_nuvoloso Europe/Zurich

2 °C

Molto Nuvoloso

Temp. 24 Ore

-3 °C

9 °C

Nord

1.8 Km/h

Dew point 1 °C

Umidità 93 %

Visibilità  10 Km

Il sole sorge alle ore 07:50

Il sole tramonta alle ore 16:40

Data e Ora Cielo e Fenomeni T °C DP °C Um. % Pres. hPa Vis. km Vento km/h
Oggi h: 03:50 molto_nuvoloso Molto Nuvoloso 2 1 93 1019 10 N 1.8
Oggi h: 03:20 poco_nuvoloso Poco Nuvoloso 3 1 86 1019 10 N 1.8
Oggi h: 02:50 coperto Coperto 2 1 93 1020 10 N 3.7
Oggi h: 02:20 molto_nuvoloso Molto Nuvoloso 2 0 86 1020 10 N 1.8
Oggi h: 01:50 coperto Coperto 2 1 93 1020 10 N 3.7
Oggi h: 01:20 coperto Coperto 2 0 86 1020 10 N 1.8
Oggi h: 00:50 coperto Coperto 2 0 86 1021 10 N 1.8
Oggi h: 00:20 coperto Coperto 2 1 93 1021 10 N 3.7
Ieri h: 23:50 coperto Coperto 1 0 93 1021 10 N 3.7
Ieri h: 23:20 coperto Coperto 1 0 93 1021 10 N 1.8
Ieri h: 22:50 coperto Coperto 0 -0 100 1021 10 N 0
Ieri h: 22:20 coperto Coperto -1 -1 100 1022 10 N 3.7
Ieri h: 21:50 molto_nuvoloso Molto Nuvoloso -0 -1 92 1022 10 N 3.7
Ieri h: 21:20 sereno Sereno 1 0 93 1022 10 N 1.8
Ieri h: 20:50 poco_nuvoloso Poco Nuvoloso 0 -1 92 1022 10 N 3.7
Ieri h: 20:20 poco_nuvoloso Poco Nuvoloso 1 1 100 1022 10 N 5.5
Ieri h: 19:50 sereno Sereno 1 1 100 1022 10 N 3.7
Ieri h: 19:20 sereno Sereno 0 -1 92 1022 10 N 5.5
Ieri h: 18:50 sereno Sereno 2 1 93 1022 10 N 1.8
Ieri h: 18:20 sereno Sereno 3 1 86 1022 10 N 3.7
Ieri h: 17:50 sereno Sereno 3 2 93 1022 10 N 1.8
Ieri h: 17:20 sereno Sereno 4 1 80 1022 10 N 1.8
Ieri h: 16:50 sereno Sereno 5 1 75 1022 10 N 1.8
Ieri h: 16:20 sereno Sereno 6 2 75 1022 10 N 1.8
Ieri h: 15:50 sereno Sereno 8 2 65 1022 10 N 5.5
Ieri h: 15:20 sereno Sereno 9 0 53 1022 10 N 3.7
Ieri h: 14:50 sereno Sereno 9 0 53 1022 10 N 1.8
Ieri h: 14:20 sereno Sereno 9 1 57 1023 10 N 3.7
Ieri h: 13:50 sereno Sereno 8 -0 56 1023 10 N 3.7
Ieri h: 13:20 sereno Sereno 7 0 60 1023 10 N 5.5
Ieri h: 12:50 sereno Sereno 7 -0 60 1024 10 N 3.7
Ieri h: 12:20 sereno Sereno 6 1 70 1024 10 N 3.7
Ieri h: 11:50 sereno Sereno 5 0 70 1025 10 N 3.7
Ieri h: 11:20 sereno Sereno 5 0 70 1025 10 N 3.7
Ieri h: 10:50 sereno Sereno 4 0 75 1026 10 N 1.8
Ieri h: 10:20 sereno Sereno 3 -0 80 1026 10 N 1.8
Ieri h: 09:50 sereno Sereno -0 -1 92 1026 10 N 1.8
Ieri h: 09:20 sereno Sereno -2 -2 100 1026 10 N 3.7
Ieri h: 08:50 sereno Sereno -2 -3 92 1026 10 N 3.7
Ieri h: 07:50 sereno Sereno -3 -3 100 1026 10 N 5.5
Ieri h: 07:20 sereno Sereno -3 -3 100 1025 10 N 3.7
Ieri h: 06:50 sereno Sereno -3 -3 100 1025 10 N 3.7
Ieri h: 06:20 sereno Sereno -2 -2 100 1025 10 N 0
Ieri h: 05:50 sereno Sereno -2 -2 100 1025 10 N 5.5
Ieri h: 05:20 sereno Sereno -3 -3 100 1026 10 N 5.5
Ieri h: 04:50 sereno Sereno -1 -1 100 1026 7 N 3.7